createdAt,value
2023-02-12T00:02:24.437Z,16.50
2023-02-12T00:07:30.485Z,17.05
2023-02-12T00:12:35.732Z,18.13
2023-02-12T00:17:39.116Z,17.63
2023-02-12T00:22:42.501Z,17.13
2023-02-12T00:27:47.346Z,18.35
2023-02-12T00:32:50.801Z,17.95
2023-02-12T00:37:54.194Z,16.73
2023-02-12T00:42:58.968Z,18.00
2023-02-12T00:48:02.396Z,16.80
2023-02-12T00:53:06.008Z,16.42
2023-02-12T00:58:11.197Z,17.25
2023-02-12T01:03:14.778Z,15.82
2023-02-12T01:08:20.574Z,15.10
2023-02-12T01:13:26.029Z,15.88
2023-02-12T01:18:29.672Z,15.75
2023-02-12T01:23:33.309Z,17.25
2023-02-12T01:28:38.083Z,15.98
2023-02-12T01:33:42.064Z,16.58
2023-02-12T01:38:45.614Z,15.52
2023-02-12T01:44:09.596Z,14.15
2023-02-12T01:49:17.768Z,15.95
2023-02-12T01:54:23.316Z,14.43
2023-02-12T01:59:28.702Z,15.35
2023-02-12T02:04:37.200Z,15.57
2023-02-12T02:09:41.314Z,14.02
2023-02-12T02:14:47.374Z,15.40
2023-02-12T02:20:31.739Z,15.75
2023-02-12T02:26:03.069Z,15.35
2023-02-12T02:31:16.107Z,14.65
2023-02-12T02:41:36.163Z,15.63
2023-02-12T02:46:46.893Z,14.52
2023-02-12T02:51:56.402Z,12.23
2023-02-12T02:57:13.599Z,14.65
2023-02-12T03:02:22.738Z,13.07
2023-02-12T03:07:29.385Z,13.15
2023-02-12T03:12:37.873Z,13.93
2023-02-12T03:17:46.898Z,13.10
2023-02-12T03:22:55.352Z,13.18
2023-02-12T03:28:04.842Z,11.15
2023-02-12T03:33:18.127Z,12.75
2023-02-12T03:38:37.927Z,12.93
2023-02-12T03:43:50.869Z,12.85
2023-02-12T03:49:01.973Z,12.43
2023-02-12T03:54:06.944Z,10.93
2023-02-12T03:59:11.110Z,11.68
2023-02-12T04:04:16.262Z,11.27
2023-02-12T04:09:20.949Z,11.00
2023-02-12T04:14:32.121Z,10.63
2023-02-12T04:19:53.552Z,10.50
2023-02-12T04:25:08.061Z,11.32
2023-02-12T04:30:21.604Z,11.77
2023-02-12T04:35:32.455Z,13.90
2023-02-12T04:40:37.043Z,9.65
2023-02-12T04:45:40.627Z,11.20
2023-02-12T04:50:46.636Z,9.55
2023-02-12T04:55:50.766Z,10.82
2023-02-12T05:00:54.131Z,10.23
2023-02-12T05:06:03.892Z,10.10
2023-02-12T05:11:09.058Z,10.18
2023-02-12T05:16:12.456Z,10.45
2023-02-12T05:21:17.867Z,10.48
2023-02-12T05:26:23.091Z,11.70
2023-02-12T05:31:26.627Z,9.48
2023-02-12T05:36:31.638Z,10.15
2023-02-12T05:41:35.765Z,10.88
2023-02-12T05:46:39.945Z,10.10
2023-02-12T05:51:44.760Z,9.65
2023-02-12T05:56:49.210Z,14.40
2023-02-12T06:01:53.396Z,11.43
2023-02-12T06:06:58.170Z,8.80
2023-02-12T06:12:01.516Z,9.38
2023-02-12T06:17:05.240Z,9.13
2023-02-12T06:22:10.162Z,9.05
2023-02-12T06:27:13.777Z,8.98
2023-02-12T06:32:17.196Z,9.57
2023-02-12T06:37:21.964Z,10.70
2023-02-12T06:42:25.384Z,9.63
2023-02-12T06:47:28.966Z,10.93
2023-02-12T06:52:33.716Z,9.77
2023-02-12T06:57:37.158Z,9.15
2023-02-12T07:02:40.584Z,9.55
2023-02-12T07:07:45.347Z,10.00
2023-02-12T07:12:49.021Z,10.57
2023-02-12T07:17:52.435Z,10.25
2023-02-12T07:22:57.621Z,8.95
2023-02-12T07:28:01.626Z,9.15
2023-02-12T07:33:05.390Z,9.35
2023-02-12T07:38:10.108Z,9.23
2023-02-12T07:43:14.567Z,9.98
2023-02-12T07:48:17.955Z,8.45
2023-02-12T07:53:22.948Z,9.43
2023-02-12T07:58:26.311Z,9.93
2023-02-12T08:03:30.197Z,11.02
2023-02-12T08:08:34.976Z,10.13
2023-02-12T08:13:39.049Z,8.75
2023-02-12T08:18:43.188Z,9.60
2023-02-12T08:23:50.587Z,9.82
2023-02-12T08:28:56.479Z,8.18
2023-02-12T08:34:00.810Z,10.40
2023-02-12T08:39:06.727Z,10.05
2023-02-12T08:44:10.968Z,10.88
2023-02-12T08:49:16.344Z,9.07
2023-02-12T08:54:24.104Z,10.07
2023-02-12T08:59:28.481Z,9.95
2023-02-12T09:04:32.189Z,10.43
2023-02-12T09:09:36.897Z,10.85
2023-02-12T09:14:40.280Z,9.82
2023-02-12T09:19:43.864Z,10.93
2023-02-12T09:24:48.559Z,11.95
2023-02-12T09:29:51.928Z,11.02
2023-02-12T09:34:55.345Z,10.02
2023-02-12T09:40:00.148Z,11.05
2023-02-12T09:45:11.729Z,10.48
2023-02-12T09:50:32.920Z,10.40
2023-02-12T09:55:37.990Z,11.50
2023-02-12T10:00:41.406Z,10.75
2023-02-12T10:05:49.939Z,11.05
2023-02-12T10:11:00.802Z,9.68
2023-02-12T10:16:14.312Z,8.73
2023-02-12T10:26:31.415Z,10.52
2023-02-12T10:31:38.839Z,10.10
2023-02-12T10:36:44.638Z,10.00
2023-02-12T10:41:56.158Z,9.80
2023-02-12T10:46:59.540Z,9.40
2023-02-12T10:52:11.796Z,9.82
2023-02-12T10:57:21.914Z,8.80
2023-02-12T11:02:28.129Z,8.68
2023-02-12T11:07:49.131Z,8.55
2023-02-12T11:12:54.784Z,8.18
2023-02-12T11:18:00.680Z,6.60
2023-02-12T11:23:06.404Z,8.35
2023-02-12T11:28:20.233Z,7.63
2023-02-12T11:33:32.785Z,8.95
2023-02-12T11:38:39.802Z,8.93
2023-02-12T11:43:45.969Z,7.82
2023-02-12T11:48:50.037Z,6.85
2023-02-12T11:53:55.869Z,8.10
2023-02-12T11:59:18.798Z,6.45
2023-02-12T12:04:25.668Z,7.43
2023-02-12T12:09:37.363Z,6.85
2023-02-12T12:15:04.692Z,5.60
2023-02-12T12:20:16.918Z,4.63
2023-02-12T12:25:26.388Z,4.70
2023-02-12T12:30:40.766Z,6.28
2023-02-12T12:35:52.810Z,6.07
2023-02-12T12:41:04.853Z,6.30
2023-02-12T12:46:35.467Z,6.63
2023-02-12T12:52:00.961Z,7.35
2023-02-12T12:57:16.780Z,5.18
2023-02-12T13:03:03.233Z,3.90
2023-02-12T13:08:20.253Z,4.55
2023-02-12T13:13:32.170Z,5.80
2023-02-12T13:18:51.610Z,6.65
2023-02-12T13:23:59.211Z,4.68
2023-02-12T13:29:09.225Z,4.07
2023-02-12T13:34:18.207Z,4.40
2023-02-12T13:39:32.212Z,3.78
2023-02-12T13:44:44.307Z,5.13
2023-02-12T13:49:54.999Z,3.90
2023-02-12T13:55:13.078Z,4.20
2023-02-12T14:00:53.565Z,3.72
2023-02-12T14:06:16.521Z,4.25
2023-02-12T14:11:23.364Z,4.00
2023-02-12T14:16:41.180Z,3.75
2023-02-12T14:21:45.985Z,2.90
2023-02-12T14:26:49.436Z,4.13
2023-02-12T14:31:52.882Z,2.78
2023-02-12T14:42:56.428Z,2.90
2023-02-12T14:48:00.257Z,2.83
2023-02-12T14:53:14.953Z,3.20
2023-02-12T14:58:22.186Z,2.83
2023-02-12T15:03:33.052Z,3.38
2023-02-12T15:08:44.936Z,3.28
2023-02-12T15:13:55.748Z,3.80
2023-02-12T15:19:03.951Z,4.07
2023-02-12T15:24:08.774Z,3.60
2023-02-12T15:29:23.175Z,3.20
2023-02-12T15:34:29.483Z,4.10
2023-02-12T15:39:40.829Z,5.10
2023-02-12T15:44:45.906Z,5.13
2023-02-12T15:49:49.494Z,4.50
2023-02-12T15:54:53.399Z,5.60
2023-02-12T16:00:03.795Z,4.97
2023-02-12T16:05:08.543Z,4.45
2023-02-12T16:10:16.420Z,5.20
2023-02-12T16:15:31.301Z,5.72
2023-02-12T16:20:34.964Z,6.40
2023-02-12T16:25:40.331Z,6.32
2023-02-12T16:30:48.421Z,6.35
2023-02-12T16:36:02.318Z,7.47
2023-02-12T16:41:21.658Z,8.82
2023-02-12T16:46:27.947Z,9.40
2023-02-12T16:51:33.689Z,10.07
2023-02-12T16:56:39.625Z,10.48
2023-02-12T17:01:58.260Z,12.27
2023-02-12T17:07:01.644Z,12.07
2023-02-12T17:12:05.472Z,10.98
2023-02-12T17:17:10.557Z,10.45
2023-02-12T17:22:23.174Z,11.90
2023-02-12T17:27:26.553Z,12.47
2023-02-12T17:32:31.299Z,10.77
2023-02-12T17:37:34.927Z,11.10
2023-02-12T17:42:39.175Z,12.27
2023-02-12T17:47:44.003Z,12.30
2023-02-12T17:52:47.655Z,13.93
2023-02-12T17:57:54.508Z,13.57
2023-02-12T18:02:59.705Z,14.82
2023-02-12T18:08:03.606Z,16.98
2023-02-12T18:13:07.033Z,14.95
2023-02-12T18:18:12.137Z,15.23
2023-02-12T18:23:15.904Z,16.08
2023-02-12T18:28:19.702Z,14.18
2023-02-12T18:33:25.030Z,13.85
2023-02-12T18:38:28.833Z,14.65
2023-02-12T18:43:34.191Z,12.85
2023-02-12T18:48:39.376Z,12.75
2023-02-12T18:53:42.930Z,13.68
2023-02-12T18:58:46.594Z,13.52
2023-02-12T19:03:55.129Z,13.80
2023-02-12T19:08:59.853Z,14.45
2023-02-12T19:14:03.315Z,13.85
2023-02-12T19:19:08.177Z,13.65
2023-02-12T19:24:13.608Z,12.45
2023-02-12T19:29:18.256Z,12.57
2023-02-12T19:34:24.827Z,11.32
2023-02-12T19:39:28.358Z,12.55
2023-02-12T19:44:32.318Z,12.95
2023-02-12T19:49:38.003Z,12.70
2023-02-12T19:54:41.437Z,14.05
2023-02-12T19:59:46.432Z,12.00
2023-02-12T20:04:51.368Z,13.20
2023-02-12T20:09:55.018Z,12.43
2023-02-12T20:15:00.958Z,13.02
2023-02-12T20:20:07.323Z,13.40
2023-02-12T20:25:10.775Z,11.95
2023-02-12T20:30:15.870Z,13.52
2023-02-12T20:35:20.672Z,14.18
2023-02-12T20:40:24.108Z,13.85
2023-02-12T20:45:28.305Z,13.10
2023-02-12T20:50:33.919Z,12.50
2023-02-12T20:55:37.290Z,12.52
2023-02-12T21:00:40.982Z,11.50
2023-02-12T21:05:45.993Z,11.45
2023-02-12T21:10:49.403Z,11.80
2023-02-12T21:15:55.056Z,13.90
2023-02-12T21:21:03.810Z,14.85
2023-02-12T21:26:08.921Z,12.07
2023-02-12T21:31:16.130Z,12.63
2023-02-12T21:36:22.909Z,11.55
2023-02-12T21:41:28.702Z,13.30
2023-02-12T21:46:32.372Z,13.15
2023-02-12T21:51:38.824Z,13.13
2023-02-12T21:56:43.940Z,12.05
2023-02-12T22:01:49.297Z,13.02
2023-02-12T22:06:54.264Z,12.40
2023-02-12T22:11:57.669Z,13.13
2023-02-12T22:17:01.373Z,12.82
2023-02-12T22:22:06.102Z,13.38
2023-02-12T22:27:09.561Z,15.60
2023-02-12T22:32:13.028Z,14.35
2023-02-12T22:37:17.974Z,13.68
2023-02-12T22:42:21.366Z,13.88
2023-02-12T22:47:25.535Z,13.38
2023-02-12T22:52:32.872Z,13.10
2023-02-12T22:57:36.248Z,13.02
2023-02-12T23:02:39.685Z,12.23
2023-02-12T23:07:44.479Z,12.35
2023-02-12T23:12:47.898Z,14.73
2023-02-12T23:17:52.389Z,13.98
2023-02-12T23:22:57.114Z,12.38
2023-02-12T23:28:00.879Z,11.98
2023-02-12T23:33:04.658Z,11.98
2023-02-12T23:38:09.476Z,11.45
2023-02-12T23:43:12.949Z,11.43
2023-02-12T23:48:17.160Z,11.60
2023-02-12T23:53:22.439Z,10.75
2023-02-12T23:58:25.812Z,11.48
